Freemousse — FGG8981 — position and weather

sailwx.info

Track history (hours):
 
Tides and Currents Weather Stations Pressure Air Temp Water Temp Dewpoint Dewpoint Depression Visibility Wind Speed Wind Dir Waves Ship Positions

Freemousse

Last reported at 2017-Aug-27 10:18 UTC. Time now 2017-Sep-22 04:44 UTC.
Position N 48°38' W 002°15'.
Warning: this ship's position is 25 days out of date.

Length 10 m.

Type: Sailing vessel. MMSI: 227060150.

Date/timePositionNaut miles runAvg speedWind from/ knotsBaromVisibWave heightAir tempDewpointWater temp
2017-Aug-27 10:18N 48°38' W 002°15'0 0.0
2017-Aug-26 17:34N 48°38' W 002°15'0 1.3
2017-Aug-26 17:24N 48°38' W 002°14'1 3.2
2017-Aug-26 17:00N 48°38' W 002°13'1 2.3
2017-Aug-26 16:29N 48°38' W 002°11'1 2.6
2017-Aug-26 16:01N 48°38' W 002°12'  
2017-Aug-21 19:33N 48°38' W 002°15'0 5.9
2017-Aug-21 19:30N 48°38' W 002°14'3 5.6
2017-Aug-21 18:59N 48°35' W 002°13'1 0.4
2017-Aug-21 16:40N 48°34' W 002°13'1 3.1
2017-Aug-21 16:28N 48°35' W 002°13'4 3.4
2017-Aug-21 15:25N 48°38' W 002°15'0 0.0
2017-Aug-21 14:58N 48°38' W 002°15'2 3.2
2017-Aug-21 14:28N 48°38' W 002°12'1 1.1
2017-Aug-21 13:55N 48°38' W 002°12'1 3.1
2017-Aug-21 13:30N 48°38' W 002°13'  
Track history (hours):
 
Tides and Currents Weather Stations Pressure Air Temp Water Temp Dewpoint Dewpoint Depression Visibility Wind Speed Wind Dir Waves Ship Positions

Freemousse

Last reported at 2017-Aug-27 10:18 UTC. Time now 2017-Sep-22 04:44 UTC.
Position N 48°38' W 002°15'.
Warning: this ship's position is 25 days out of date.

Length 10 m.

Type: Sailing vessel. MMSI: 227060150.

Date/timePositionNaut miles runAvg speedWind from/ knotsBaromVisibWave heightAir tempDewpointWater temp
2017-Aug-27 10:18N 48°38' W 002°15'0 0.0
2017-Aug-26 17:34N 48°38' W 002°15'0 1.3
2017-Aug-26 17:24N 48°38' W 002°14'1 3.2
2017-Aug-26 17:00N 48°38' W 002°13'1 2.3
2017-Aug-26 16:29N 48°38' W 002°11'1 2.6
2017-Aug-26 16:01N 48°38' W 002°12'  
2017-Aug-21 19:33N 48°38' W 002°15'0 5.9
2017-Aug-21 19:30N 48°38' W 002°14'3 5.6
2017-Aug-21 18:59N 48°35' W 002°13'1 0.4
2017-Aug-21 16:40N 48°34' W 002°13'1 3.1
2017-Aug-21 16:28N 48°35' W 002°13'4 3.4
2017-Aug-21 15:25N 48°38' W 002°15'0 0.0
2017-Aug-21 14:58N 48°38' W 002°15'2 3.2
2017-Aug-21 14:28N 48°38' W 002°12'1 1.1
2017-Aug-21 13:55N 48°38' W 002°12'1 3.1
2017-Aug-21 13:30N 48°38' W 002°13'  

Dump ship's entire track history